createdAt,value
2019-04-16T00:00:02.151Z,4.44
2019-04-16T00:01:02.140Z,4.40
2019-04-16T00:02:02.129Z,4.33
2019-04-16T00:03:02.120Z,4.34
2019-04-16T00:04:02.108Z,4.33
2019-04-16T00:05:02.102Z,4.23
2019-04-16T00:06:02.086Z,4.23
2019-04-16T00:07:02.077Z,4.20
2019-04-16T00:08:02.066Z,4.11
2019-04-16T00:09:02.059Z,4.23
2019-04-16T00:10:02.064Z,4.12
2019-04-16T00:11:02.084Z,4.14
2019-04-16T00:12:02.197Z,4.22
2019-04-16T00:13:02.131Z,4.23
2019-04-16T00:14:03.396Z,4.16
2019-04-16T00:15:02.133Z,4.23
2019-04-16T00:16:01.984Z,4.26
2019-04-16T00:17:02.127Z,4.26
2019-04-16T00:18:01.961Z,4.14
2019-04-16T00:19:05.700Z,4.09
2019-04-16T00:20:05.891Z,4.14
2019-04-16T00:21:01.929Z,4.00
2019-04-16T00:22:01.918Z,4.04
2019-04-16T00:23:01.906Z,3.98
2019-04-16T00:24:01.906Z,4.00
2019-04-16T00:25:01.888Z,3.94
2019-04-16T00:26:01.876Z,3.93
2019-04-16T00:27:01.866Z,3.93
2019-04-16T00:28:01.858Z,3.91
2019-04-16T00:29:02.955Z,3.91
2019-04-16T00:30:04.857Z,3.93
2019-04-16T00:31:04.686Z,3.79
2019-04-16T00:32:01.814Z,3.86
2019-04-16T00:33:01.878Z,3.91
2019-04-16T00:34:01.890Z,3.91
2019-04-16T00:35:01.782Z,3.79
2019-04-16T00:36:01.770Z,3.94
2019-04-16T00:37:01.762Z,3.83
2019-04-16T00:38:01.748Z,3.86
2019-04-16T00:39:01.739Z,3.84
2019-04-16T00:40:01.729Z,3.75
2019-04-16T00:41:02.239Z,3.80
2019-04-16T00:42:01.707Z,3.75
2019-04-16T00:43:01.695Z,3.72
2019-04-16T00:44:01.704Z,3.70
2019-04-16T00:45:01.757Z,3.73
2019-04-16T00:46:01.777Z,3.73
2019-04-16T00:47:01.654Z,3.73
2019-04-16T00:48:01.952Z,3.68
2019-04-16T00:49:01.873Z,3.66
2019-04-16T00:50:01.625Z,3.68
2019-04-16T00:51:01.612Z,3.68
2019-04-16T00:52:05.924Z,3.66
2019-04-16T00:53:02.587Z,3.68
2019-04-16T00:54:01.584Z,3.72
2019-04-16T00:55:01.568Z,3.65
2019-04-16T00:56:01.558Z,3.73
2019-04-16T00:57:01.546Z,3.69
2019-04-16T00:58:01.537Z,3.76
2019-04-16T00:59:01.526Z,3.73
2019-04-16T01:00:01.522Z,3.70
2019-04-16T01:01:01.505Z,3.68
2019-04-16T01:02:01.494Z,3.61
2019-04-16T01:03:01.485Z,3.69
2019-04-16T01:04:01.477Z,3.58
2019-04-16T01:05:01.463Z,3.52
2019-04-16T01:06:01.450Z,3.60
2019-04-16T01:07:01.440Z,3.61
2019-04-16T01:08:01.428Z,3.62
2019-04-16T01:09:01.426Z,3.62
2019-04-16T01:10:01.408Z,3.61
2019-04-16T01:11:01.399Z,3.62
2019-04-16T01:12:01.387Z,3.55
2019-04-16T01:13:01.381Z,3.57
2019-04-16T01:14:01.365Z,3.54
2019-04-16T01:15:01.359Z,3.51
2019-04-16T01:16:03.459Z,3.47
2019-04-16T01:17:03.861Z,3.47
2019-04-16T01:18:01.323Z,3.35
2019-04-16T01:19:01.868Z,3.35
2019-04-16T01:20:01.304Z,3.36
2019-04-16T01:21:01.290Z,3.36
2019-04-16T01:22:01.281Z,3.40
2019-04-16T01:23:01.286Z,3.39
2019-04-16T01:24:01.334Z,3.29
2019-04-16T01:25:01.552Z,3.32
2019-04-16T01:26:01.542Z,3.33
2019-04-16T01:27:01.433Z,3.36
2019-04-16T01:28:01.272Z,3.33
2019-04-16T01:29:03.751Z,3.28
2019-04-16T01:30:05.120Z,3.35
2019-04-16T01:31:07.131Z,3.13
2019-04-16T01:32:02.174Z,3.28
2019-04-16T01:33:01.164Z,3.28
2019-04-16T01:34:01.159Z,3.28
2019-04-16T01:35:01.144Z,3.26
2019-04-16T01:36:01.133Z,3.23
2019-04-16T01:37:01.124Z,3.21
2019-04-16T01:38:01.110Z,3.15
2019-04-16T01:39:14.980Z,3.11
2019-04-16T01:40:02.089Z,3.15
2019-04-16T01:41:01.078Z,3.20
2019-04-16T01:42:01.069Z,3.13
2019-04-16T01:43:01.058Z,3.18
2019-04-16T01:44:01.049Z,3.18
2019-04-16T01:45:01.048Z,3.15
2019-04-16T01:46:02.301Z,3.15
2019-04-16T01:47:03.784Z,3.15
2019-04-16T01:48:01.005Z,3.11
2019-04-16T01:49:00.993Z,3.00
2019-04-16T01:50:01.347Z,2.95
2019-04-16T01:51:00.972Z,3.00
2019-04-16T01:52:00.963Z,2.92
2019-04-16T01:53:00.954Z,2.95
2019-04-16T01:54:00.943Z,3.05
2019-04-16T01:55:00.932Z,2.96
2019-04-16T01:56:00.921Z,2.95
2019-04-16T01:57:01.165Z,3.00
2019-04-16T01:58:02.696Z,2.99
2019-04-16T01:59:04.631Z,2.96
2019-04-16T02:00:00.879Z,3.06
2019-04-16T02:01:00.868Z,3.00
2019-04-16T02:02:00.856Z,3.08
2019-04-16T02:03:00.846Z,3.13
2019-04-16T02:04:00.971Z,3.06
2019-04-16T02:05:00.825Z,3.10
2019-04-16T02:06:00.815Z,2.96
2019-04-16T02:07:00.804Z,2.97
2019-04-16T02:08:00.793Z,2.97
2019-04-16T02:09:02.981Z,3.06
2019-04-16T02:10:00.777Z,2.96
2019-04-16T02:11:00.763Z,3.02
2019-04-16T02:12:00.754Z,2.92
2019-04-16T02:13:00.745Z,2.97
2019-04-16T02:14:00.775Z,2.90
2019-04-16T02:15:00.797Z,2.95
2019-04-16T02:16:00.708Z,2.90
2019-04-16T02:17:00.699Z,2.89
2019-04-16T02:18:00.690Z,2.89
2019-04-16T02:19:02.233Z,2.89
2019-04-16T02:20:02.007Z,2.92
2019-04-16T02:21:00.665Z,2.87
2019-04-16T02:22:00.648Z,2.85
2019-04-16T02:23:00.636Z,2.81
2019-04-16T02:24:00.625Z,2.77
2019-04-16T02:25:00.613Z,2.77
2019-04-16T02:26:00.612Z,2.64
2019-04-16T02:27:00.593Z,2.67
2019-04-16T02:28:00.583Z,2.66
2019-04-16T02:29:00.572Z,2.64
2019-04-16T02:30:02.957Z,2.72
2019-04-16T02:31:00.625Z,2.74
2019-04-16T02:32:00.539Z,2.74
2019-04-16T02:33:00.618Z,2.78
2019-04-16T02:34:00.855Z,2.85
2019-04-16T02:35:00.746Z,2.89
2019-04-16T02:36:00.622Z,2.84
2019-04-16T02:37:02.225Z,2.87
2019-04-16T02:38:00.684Z,2.87
2019-04-16T02:39:00.478Z,2.85
2019-04-16T02:40:00.842Z,2.77
2019-04-16T02:41:00.452Z,2.69
2019-04-16T02:42:00.500Z,2.77
2019-04-16T02:43:06.607Z,2.72
2019-04-16T02:44:01.415Z,2.64
2019-04-16T02:45:00.403Z,2.63
2019-04-16T02:46:00.595Z,2.71
2019-04-16T02:47:05.366Z,2.77
2019-04-16T02:48:01.375Z,2.78
2019-04-16T02:49:00.360Z,2.74
2019-04-16T02:50:00.351Z,2.77
2019-04-16T02:51:05.320Z,2.82
2019-04-16T02:52:01.327Z,2.74
2019-04-16T02:53:00.318Z,2.82
2019-04-16T02:54:00.311Z,2.78
2019-04-16T02:55:07.681Z,2.79
2019-04-16T02:56:01.490Z,2.81
2019-04-16T02:57:00.412Z,2.79
2019-04-16T02:58:01.804Z,2.79
2019-04-16T02:59:00.256Z,2.72
2019-04-16T03:00:00.242Z,2.71
2019-04-16T03:01:00.232Z,2.72
2019-04-16T03:02:00.223Z,2.71
2019-04-16T03:03:00.212Z,2.61
2019-04-16T03:04:00.200Z,2.66
2019-04-16T03:05:00.190Z,2.67
2019-04-16T03:06:01.039Z,2.60
2019-04-16T03:07:02.733Z,2.72
2019-04-16T03:08:01.425Z,2.69
2019-04-16T03:09:00.148Z,2.64
2019-04-16T03:10:01.591Z,2.71
2019-04-16T03:11:00.127Z,2.72
2019-04-16T03:12:00.117Z,2.64
2019-04-16T03:13:00.104Z,2.66
2019-04-16T03:14:00.095Z,2.60
2019-04-16T03:15:01.304Z,2.59
2019-04-16T03:16:02.862Z,2.66
2019-04-16T03:17:01.062Z,2.63
2019-04-16T03:18:00.053Z,2.49
2019-04-16T03:19:00.046Z,2.52
2019-04-16T03:20:00.031Z,2.48
2019-04-16T03:21:00.022Z,2.45
2019-04-16T03:22:02.263Z,2.42
2019-04-16T03:23:05.181Z,2.41
2019-04-16T03:24:00.987Z,2.49
2019-04-16T03:24:59.979Z,2.48
2019-04-16T03:25:59.967Z,2.57
2019-04-16T03:26:59.960Z,2.53
2019-04-16T03:27:59.952Z,2.52
2019-04-16T03:28:59.945Z,2.49
2019-04-16T03:30:03.503Z,2.41
2019-04-16T03:31:00.916Z,2.45
2019-04-16T03:31:59.995Z,2.42
2019-04-16T03:32:59.903Z,2.36
2019-04-16T03:33:59.995Z,2.31
2019-04-16T03:34:59.873Z,2.41
2019-04-16T03:35:59.863Z,2.31
2019-04-16T03:37:01.923Z,2.38
2019-04-16T03:38:01.605Z,2.25
2019-04-16T03:38:59.831Z,2.28
2019-04-16T03:39:59.820Z,2.30
2019-04-16T03:40:59.809Z,2.27
2019-04-16T03:41:59.799Z,2.30
2019-04-16T03:43:02.464Z,2.23
2019-04-16T03:44:03.643Z,2.27
2019-04-16T03:44:59.771Z,2.30
2019-04-16T03:45:59.757Z,2.30
2019-04-16T03:46:59.746Z,2.31
2019-04-16T03:47:59.736Z,2.30
2019-04-16T03:48:59.725Z,2.24
2019-04-16T03:50:00.233Z,2.30
2019-04-16T03:51:00.570Z,2.31
2019-04-16T03:51:59.692Z,2.30
2019-04-16T03:52:59.682Z,2.31
2019-04-16T03:53:59.672Z,2.28
2019-04-16T03:54:59.661Z,2.23
2019-04-16T03:55:59.651Z,2.41
2019-04-16T03:57:02.173Z,2.31
2019-04-16T03:58:02.600Z,2.27
2019-04-16T03:59:00.618Z,2.31
2019-04-16T04:00:00.888Z,2.23
2019-04-16T04:00:59.598Z,2.31
2019-04-16T04:01:59.589Z,2.20
2019-04-16T04:02:59.578Z,2.30
2019-04-16T04:03:59.567Z,2.21
2019-04-16T04:05:01.112Z,2.21
2019-04-16T04:05:59.545Z,2.10
2019-04-16T04:06:59.533Z,2.21
2019-04-16T04:07:59.523Z,2.14
2019-04-16T04:08:59.513Z,2.03
2019-04-16T04:09:59.502Z,1.95
2019-04-16T04:10:59.494Z,2.09
2019-04-16T04:11:59.483Z,2.03
2019-04-16T04:12:59.484Z,1.99
2019-04-16T04:13:59.459Z,1.90
2019-04-16T04:14:59.460Z,1.93
2019-04-16T04:16:01.607Z,1.98
2019-04-16T04:16:59.439Z,1.86
2019-04-16T04:17:59.419Z,1.81
2019-04-16T04:18:59.407Z,1.77
2019-04-16T04:19:59.398Z,1.80
2019-04-16T04:20:59.386Z,1.80
2019-04-16T04:21:59.376Z,1.79
2019-04-16T04:22:59.365Z,1.87
2019-04-16T04:24:00.691Z,1.99
2019-04-16T04:25:03.901Z,1.91
2019-04-16T04:25:59.334Z,2.09
2019-04-16T04:26:59.324Z,1.99
2019-04-16T04:27:59.312Z,2.12
2019-04-16T04:28:59.305Z,2.07
2019-04-16T04:29:59.290Z,2.14
2019-04-16T04:31:00.758Z,2.14
2019-04-16T04:32:03.133Z,2.14
2019-04-16T04:32:59.273Z,2.16
2019-04-16T04:33:59.249Z,2.20
2019-04-16T04:34:59.239Z,2.10
2019-04-16T04:35:59.227Z,2.10
2019-04-16T04:37:00.066Z,2.20
2019-04-16T04:38:00.798Z,2.18
2019-04-16T04:38:59.194Z,2.24
2019-04-16T04:39:59.185Z,2.24
2019-04-16T04:40:59.845Z,2.23
2019-04-16T04:41:59.164Z,2.17
2019-04-16T04:43:00.943Z,2.25
2019-04-16T04:44:03.911Z,2.18
2019-04-16T04:45:00.131Z,2.20
2019-04-16T04:45:59.121Z,2.25
2019-04-16T04:46:59.113Z,2.16
2019-04-16T04:47:59.101Z,2.23
2019-04-16T04:49:00.312Z,2.20
2019-04-16T04:49:59.527Z,2.16
2019-04-16T04:50:59.068Z,2.17
2019-04-16T04:51:59.058Z,2.17
2019-04-16T04:52:59.053Z,2.31
2019-04-16T04:53:59.037Z,2.24
2019-04-16T04:54:59.028Z,2.23
2019-04-16T04:55:59.015Z,2.31
2019-04-16T04:56:59.968Z,2.34
2019-04-16T04:58:02.499Z,2.28
2019-04-16T04:58:58.983Z,2.27
2019-04-16T04:59:58.974Z,2.42
2019-04-16T05:00:58.961Z,2.48
2019-04-16T05:01:58.951Z,2.39
2019-04-16T05:02:58.942Z,2.43
2019-04-16T05:04:02.031Z,2.54
2019-04-16T05:04:58.921Z,2.53
2019-04-16T05:05:58.909Z,2.56
2019-04-16T05:06:58.900Z,2.57
2019-04-16T05:08:00.023Z,2.63
2019-04-16T05:09:00.590Z,2.67
2019-04-16T05:09:58.870Z,2.72
2019-04-16T05:11:02.699Z,2.75
2019-04-16T05:11:58.849Z,2.79
2019-04-16T05:12:58.836Z,2.81
2019-04-16T05:13:58.825Z,2.87
2019-04-16T05:14:58.972Z,2.85
2019-04-16T05:16:01.961Z,2.84
2019-04-16T05:16:58.801Z,2.90
2019-04-16T05:17:58.783Z,3.03
2019-04-16T05:18:58.771Z,2.95
2019-04-16T05:19:58.773Z,3.08
2019-04-16T05:20:58.750Z,3.13
2019-04-16T05:21:58.739Z,3.11
2019-04-16T05:22:58.739Z,3.29
2019-04-16T05:23:58.719Z,3.39
2019-04-16T05:25:01.524Z,3.36
2019-04-16T05:25:58.697Z,3.36
2019-04-16T05:26:58.692Z,3.57
2019-04-16T05:27:58.684Z,3.58
2019-04-16T05:28:58.668Z,3.62
2019-04-16T05:29:58.657Z,3.62
2019-04-16T05:30:58.645Z,3.70
2019-04-16T05:31:58.635Z,3.68
2019-04-16T05:32:58.625Z,3.72
2019-04-16T05:34:02.077Z,3.73
2019-04-16T05:34:58.603Z,3.80
2019-04-16T05:35:59.451Z,3.84
2019-04-16T05:36:58.583Z,3.86
2019-04-16T05:37:58.572Z,3.97
2019-04-16T05:38:58.563Z,3.98
2019-04-16T05:39:59.478Z,4.04
2019-04-16T05:41:12.200Z,4.11
2019-04-16T05:41:59.528Z,4.24
2019-04-16T05:42:58.783Z,4.48
2019-04-16T05:44:01.776Z,4.69
2019-04-16T05:44:58.496Z,5.00
2019-04-16T05:45:58.486Z,5.64
2019-04-16T05:46:58.477Z,5.78
2019-04-16T05:47:58.464Z,6.11
2019-04-16T05:48:58.454Z,6.66
2019-04-16T05:49:58.781Z,7.10
2019-04-16T05:50:59.971Z,7.58
2019-04-16T05:52:02.900Z,7.69
2019-04-16T05:52:59.411Z,8.22
2019-04-16T05:53:58.400Z,8.73
2019-04-16T05:55:01.202Z,8.98
2019-04-16T05:55:58.406Z,9.24
2019-04-16T05:56:58.368Z,8.74
2019-04-16T05:57:58.973Z,8.81
2019-04-16T05:58:59.654Z,8.96
2019-04-16T05:59:58.336Z,9.36
2019-04-16T06:00:58.326Z,9.50
2019-04-16T06:01:58.364Z,9.17
2019-04-16T06:02:58.305Z,9.13
2019-04-16T06:03:58.293Z,9.26
2019-04-16T06:04:58.282Z,9.05
2019-04-16T06:05:59.210Z,9.04
2019-04-16T06:07:02.899Z,8.98
2019-04-16T06:07:59.249Z,8.89
2019-04-16T06:08:58.246Z,9.05
2019-04-16T06:09:58.228Z,9.08
2019-04-16T06:10:58.220Z,9.40
2019-04-16T06:11:58.209Z,9.74
2019-04-16T06:12:58.196Z,9.75
2019-04-16T06:13:58.186Z,9.36
2019-04-16T06:14:58.175Z,9.60
2019-04-16T06:15:58.166Z,9.75
2019-04-16T06:16:58.156Z,9.94
2019-04-16T06:17:58.146Z,10.17
2019-04-16T06:18:58.131Z,10.34
2019-04-16T06:19:58.121Z,10.41
2019-04-16T06:20:58.110Z,10.64
2019-04-16T06:21:58.099Z,10.67
2019-04-16T06:23:00.568Z,10.55
2019-04-16T06:24:03.084Z,10.53
2019-04-16T06:24:59.075Z,10.07
2019-04-16T06:25:58.061Z,10.32
2019-04-16T06:26:58.046Z,10.44
2019-04-16T06:27:58.034Z,10.40
2019-04-16T06:28:59.944Z,10.51
2019-04-16T06:30:01.433Z,10.68
2019-04-16T06:30:58.004Z,10.74
2019-04-16T06:31:57.997Z,10.76
2019-04-16T06:32:57.984Z,10.74
2019-04-16T06:33:57.972Z,10.91
2019-04-16T06:34:57.961Z,10.97
2019-04-16T06:35:57.948Z,11.09
2019-04-16T06:36:57.939Z,10.92
2019-04-16T06:37:57.929Z,10.88
2019-04-16T06:38:58.661Z,11.04
2019-04-16T06:40:00.643Z,11.11
2019-04-16T06:41:03.118Z,11.11
2019-04-16T06:41:58.883Z,11.46
2019-04-16T06:42:57.876Z,11.51
2019-04-16T06:43:59.259Z,11.52
2019-04-16T06:44:57.863Z,11.39
2019-04-16T06:45:57.841Z,11.37
2019-04-16T06:46:57.830Z,11.39
2019-04-16T06:47:57.820Z,11.70
2019-04-16T06:48:57.810Z,11.82
2019-04-16T06:49:57.798Z,11.49
2019-04-16T06:50:57.788Z,11.51
2019-04-16T06:51:59.731Z,11.43
2019-04-16T06:52:57.765Z,11.69
2019-04-16T06:53:57.755Z,11.55
2019-04-16T06:55:00.440Z,11.06
2019-04-16T06:55:58.733Z,11.07
2019-04-16T06:56:57.722Z,11.46
2019-04-16T06:57:57.715Z,11.33
2019-04-16T06:58:58.200Z,11.69
2019-04-16T06:59:59.489Z,12.12
2019-04-16T07:00:57.682Z,12.27
2019-04-16T07:01:57.671Z,12.31
2019-04-16T07:03:02.562Z,12.41
2019-04-16T07:03:59.855Z,12.46
2019-04-16T07:04:58.325Z,12.32
2019-04-16T07:05:57.626Z,12.17
2019-04-16T07:06:57.614Z,12.20
2019-04-16T07:07:57.610Z,12.32
2019-04-16T07:08:57.595Z,12.34
2019-04-16T07:09:57.744Z,12.42
2019-04-16T07:10:57.572Z,12.56
2019-04-16T07:11:57.563Z,12.67
2019-04-16T07:12:57.559Z,12.71
2019-04-16T07:13:57.544Z,13.04
2019-04-16T07:14:57.535Z,13.32
2019-04-16T07:15:57.791Z,13.55
2019-04-16T07:17:00.162Z,13.88
2019-04-16T07:17:57.496Z,13.88
2019-04-16T07:18:57.486Z,13.66
2019-04-16T07:19:57.483Z,13.52
2019-04-16T07:20:57.466Z,13.36
2019-04-16T07:21:57.453Z,12.64
2019-04-16T07:22:57.440Z,12.50
2019-04-16T07:23:58.613Z,12.56
2019-04-16T07:24:57.591Z,12.70
2019-04-16T07:25:57.515Z,12.59
2019-04-16T07:26:57.464Z,12.75
2019-04-16T07:27:58.619Z,12.89
2019-04-16T07:28:59.024Z,12.79
2019-04-16T07:29:57.726Z,13.05
2019-04-16T07:30:57.879Z,13.39
2019-04-16T07:31:57.395Z,13.60
2019-04-16T07:33:00.591Z,13.59
2019-04-16T07:33:57.344Z,13.75
2019-04-16T07:34:57.314Z,14.07
2019-04-16T07:35:57.303Z,14.25
2019-04-16T07:37:00.973Z,13.73
2019-04-16T07:37:57.286Z,13.46
2019-04-16T07:38:57.286Z,13.05
2019-04-16T07:39:57.265Z,12.83
2019-04-16T07:40:57.249Z,13.12
2019-04-16T07:42:08.662Z,13.60
2019-04-16T07:42:59.353Z,14.06
2019-04-16T07:43:57.229Z,14.14
2019-04-16T07:44:57.207Z,13.79
2019-04-16T07:45:57.199Z,14.15
2019-04-16T07:46:57.238Z,14.54
2019-04-16T07:47:57.430Z,14.43
2019-04-16T07:48:57.165Z,14.24
2019-04-16T07:49:59.842Z,13.77
2019-04-16T07:50:57.145Z,13.44
2019-04-16T07:51:57.137Z,13.64
2019-04-16T07:52:57.124Z,13.97
2019-04-16T07:53:57.113Z,14.12
2019-04-16T07:54:57.101Z,14.43
2019-04-16T07:55:57.091Z,14.22
2019-04-16T07:56:57.080Z,13.66
2019-04-16T07:57:57.069Z,13.51
2019-04-16T07:59:00.194Z,13.39
2019-04-16T07:59:57.047Z,13.67
2019-04-16T08:00:57.334Z,14.12
2019-04-16T08:01:57.033Z,14.35
2019-04-16T08:02:57.016Z,13.87
2019-04-16T08:04:01.015Z,13.95
2019-04-16T08:04:57.996Z,14.10
2019-04-16T08:05:56.983Z,13.45
2019-04-16T08:06:56.973Z,13.46
2019-04-16T08:07:56.966Z,13.81
2019-04-16T08:08:58.113Z,13.82
2019-04-16T08:10:01.069Z,14.06
2019-04-16T08:10:57.930Z,14.32
2019-04-16T08:11:56.928Z,14.47
2019-04-16T08:13:00.518Z,14.80
2019-04-16T08:13:56.904Z,15.16
2019-04-16T08:14:56.900Z,15.43
2019-04-16T08:15:57.551Z,15.59
2019-04-16T08:16:56.869Z,15.39
2019-04-16T08:17:56.856Z,15.56
2019-04-16T08:18:56.847Z,15.76
2019-04-16T08:19:56.917Z,16.08
2019-04-16T08:21:02.026Z,15.97
2019-04-16T08:21:58.008Z,16.05
2019-04-16T08:22:56.804Z,15.94
2019-04-16T08:23:56.796Z,15.78
2019-04-16T08:24:59.646Z,16.07
2019-04-16T08:26:03.223Z,16.24
2019-04-16T08:26:57.936Z,16.71
2019-04-16T08:27:56.758Z,16.57
2019-04-16T08:28:56.742Z,16.73
2019-04-16T08:30:02.186Z,17.06
2019-04-16T08:30:57.720Z,17.51
2019-04-16T08:31:56.711Z,17.54
2019-04-16T08:32:56.700Z,17.58
2019-04-16T08:33:56.691Z,17.16
2019-04-16T08:34:56.683Z,16.94
2019-04-16T08:35:56.668Z,16.96
2019-04-16T08:36:56.659Z,16.75
2019-04-16T08:37:58.542Z,16.81
2019-04-16T08:38:56.640Z,17.18
2019-04-16T08:39:56.628Z,17.22
2019-04-16T08:40:56.621Z,16.61
2019-04-16T08:41:56.609Z,16.53
2019-04-16T08:42:57.544Z,16.38
2019-04-16T08:43:56.588Z,16.86
2019-04-16T08:44:56.656Z,17.40
2019-04-16T08:45:56.574Z,17.70
2019-04-16T08:46:58.904Z,17.74
2019-04-16T08:47:56.791Z,17.64
2019-04-16T08:48:56.636Z,17.06
2019-04-16T08:49:56.529Z,17.08
2019-04-16T08:50:58.198Z,17.36
2019-04-16T08:51:56.505Z,17.81
2019-04-16T08:52:56.496Z,18.21
2019-04-16T08:53:56.488Z,18.73
2019-04-16T08:54:56.475Z,17.68
2019-04-16T08:55:56.465Z,17.72
2019-04-16T08:56:56.455Z,18.17
2019-04-16T08:57:56.444Z,18.30
2019-04-16T08:59:00.651Z,18.29
2019-04-16T08:59:56.432Z,18.60
2019-04-16T09:00:56.452Z,18.91
2019-04-16T09:01:56.405Z,19.16
2019-04-16T09:02:58.688Z,19.56
2019-04-16T09:04:01.517Z,19.39
2019-04-16T09:04:57.375Z,18.94
2019-04-16T09:05:56.364Z,18.48
2019-04-16T09:07:09.718Z,18.14
2019-04-16T09:08:10.908Z,17.79
2019-04-16T09:09:11.183Z,17.82
2019-04-16T09:09:58.534Z,17.46
2019-04-16T09:10:56.317Z,17.62
2019-04-16T09:11:56.493Z,17.37
2019-04-16T09:13:04.037Z,17.97
2019-04-16T09:13:57.282Z,18.60
2019-04-16T09:14:56.650Z,18.60
2019-04-16T09:15:56.263Z,18.65
2019-04-16T09:16:56.262Z,19.36
2019-04-16T09:17:56.469Z,19.16
2019-04-16T09:18:56.232Z,18.14
2019-04-16T09:19:56.224Z,17.71
2019-04-16T09:20:56.215Z,17.36
2019-04-16T09:21:56.204Z,17.37
2019-04-16T09:22:58.832Z,17.75
2019-04-16T09:24:03.614Z,18.20
2019-04-16T09:24:57.704Z,18.84
2019-04-16T09:26:11.244Z,18.82
2019-04-16T09:26:57.171Z,18.84
2019-04-16T09:27:56.147Z,18.92
2019-04-16T09:28:56.134Z,18.94
2019-04-16T09:29:56.338Z,18.25
2019-04-16T09:30:56.114Z,17.66
2019-04-16T09:31:56.636Z,17.90
2019-04-16T09:33:00.363Z,17.97
2019-04-16T09:33:57.553Z,17.97
2019-04-16T09:35:08.095Z,17.70
2019-04-16T09:35:57.062Z,17.63
2019-04-16T09:36:56.055Z,17.84
2019-04-16T09:37:56.049Z,17.79
2019-04-16T09:38:56.035Z,17.68
2019-04-16T09:39:56.026Z,17.72
2019-04-16T09:40:56.017Z,17.25
2019-04-16T09:41:56.005Z,17.19
2019-04-16T09:42:55.994Z,17.12
2019-04-16T09:43:57.360Z,16.96
2019-04-16T09:44:55.974Z,17.37
2019-04-16T09:46:09.414Z,18.05
2019-04-16T09:46:59.660Z,18.26
2019-04-16T09:47:55.943Z,18.23
2019-04-16T09:48:55.935Z,17.99
2019-04-16T09:49:55.928Z,18.14
2019-04-16T09:50:55.915Z,18.14
2019-04-16T09:51:55.902Z,18.55
2019-04-16T09:52:56.412Z,18.63
2019-04-16T09:53:55.886Z,18.41
2019-04-16T09:54:55.873Z,17.95
2019-04-16T09:55:55.864Z,18.20
2019-04-16T09:56:56.827Z,17.96
2019-04-16T09:57:55.844Z,17.92
2019-04-16T09:58:55.833Z,18.21
2019-04-16T09:59:55.828Z,18.82
2019-04-16T10:00:55.813Z,19.06
2019-04-16T10:01:55.803Z,18.26
2019-04-16T10:02:55.793Z,17.84
2019-04-16T10:03:55.784Z,17.77
2019-04-16T10:04:55.779Z,17.77
2019-04-16T10:05:55.765Z,17.93
2019-04-16T10:06:55.774Z,18.18
2019-04-16T10:07:57.038Z,18.32
2019-04-16T10:08:56.886Z,18.07
2019-04-16T10:09:55.725Z,17.77
2019-04-16T10:11:00.622Z,17.84
2019-04-16T10:11:57.393Z,18.11
2019-04-16T10:12:55.708Z,18.41
2019-04-16T10:13:55.686Z,17.68
2019-04-16T10:14:55.714Z,18.30
2019-04-16T10:15:55.859Z,19.10
2019-04-16T10:16:55.654Z,19.33
2019-04-16T10:17:58.633Z,18.69
2019-04-16T10:18:56.655Z,18.14
2019-04-16T10:19:55.627Z,17.71
2019-04-16T10:20:55.638Z,17.41
2019-04-16T10:21:55.627Z,17.08
2019-04-16T10:22:55.619Z,16.83
2019-04-16T10:23:55.586Z,17.04
2019-04-16T10:24:55.594Z,17.46
2019-04-16T10:25:55.585Z,17.34
2019-04-16T10:26:56.926Z,17.96
2019-04-16T10:27:55.547Z,18.47
2019-04-16T10:28:55.534Z,18.41
2019-04-16T10:29:55.524Z,18.69
2019-04-16T10:30:55.514Z,17.93
2019-04-16T10:31:55.513Z,18.07
2019-04-16T10:32:55.502Z,17.79
2019-04-16T10:33:55.492Z,17.72
2019-04-16T10:34:55.477Z,18.17
2019-04-16T10:35:57.454Z,18.65
2019-04-16T10:36:55.480Z,19.29
2019-04-16T10:37:55.445Z,19.77
2019-04-16T10:38:55.437Z,19.43
2019-04-16T10:39:55.442Z,19.19
2019-04-16T10:40:55.420Z,18.60
2019-04-16T10:41:56.550Z,19.13
2019-04-16T10:42:55.394Z,19.14
2019-04-16T10:43:55.390Z,18.75
2019-04-16T10:44:55.401Z,18.44
2019-04-16T10:45:55.397Z,18.57
2019-04-16T10:46:55.366Z,18.66
2019-04-16T10:47:55.369Z,18.81
2019-04-16T10:48:55.347Z,18.91
2019-04-16T10:49:55.332Z,19.04
2019-04-16T10:50:55.530Z,18.48
2019-04-16T10:51:55.326Z,18.50
2019-04-16T10:52:56.207Z,18.58
2019-04-16T10:53:55.286Z,18.52
2019-04-16T10:54:55.275Z,18.15
2019-04-16T10:55:55.265Z,17.99
2019-04-16T10:56:57.894Z,17.99
2019-04-16T10:57:55.245Z,18.15
2019-04-16T10:58:55.249Z,18.03
2019-04-16T10:59:55.228Z,18.20
2019-04-16T11:00:55.241Z,18.26
2019-04-16T11:01:55.209Z,18.20
2019-04-16T11:02:55.229Z,18.20
2019-04-16T11:03:55.185Z,18.30
2019-04-16T11:04:55.176Z,18.65
2019-04-16T11:05:57.046Z,18.58
2019-04-16T11:06:55.158Z,18.37
2019-04-16T11:07:55.151Z,19.16
2019-04-16T11:08:55.143Z,19.02
2019-04-16T11:09:55.141Z,19.43
2019-04-16T11:10:55.122Z,19.44
2019-04-16T11:11:55.107Z,19.94
2019-04-16T11:12:55.117Z,19.99
2019-04-16T11:14:00.219Z,19.86
2019-04-16T11:14:56.073Z,19.69
2019-04-16T11:15:55.096Z,18.73
2019-04-16T11:16:55.084Z,18.52
2019-04-16T11:17:55.079Z,18.78
2019-04-16T11:18:55.390Z,18.54
2019-04-16T11:19:55.045Z,18.54
2019-04-16T11:20:55.016Z,18.91
2019-04-16T11:21:55.014Z,18.73
2019-04-16T11:22:54.995Z,18.99
2019-04-16T11:23:55.013Z,19.31
2019-04-16T11:24:54.975Z,19.13
2019-04-16T11:25:54.973Z,19.06
2019-04-16T11:26:54.956Z,18.80
2019-04-16T11:27:54.949Z,19.02
2019-04-16T11:28:54.935Z,18.63
2019-04-16T11:29:54.925Z,18.63
2019-04-16T11:30:54.924Z,18.41
2019-04-16T11:31:54.939Z,18.81
2019-04-16T11:32:54.918Z,19.00
2019-04-16T11:33:54.920Z,18.55
2019-04-16T11:34:54.891Z,18.45
2019-04-16T11:35:54.865Z,18.70
2019-04-16T11:36:58.197Z,18.72
2019-04-16T11:37:54.846Z,18.84
2019-04-16T11:38:54.838Z,18.55
2019-04-16T11:39:54.832Z,18.99
2019-04-16T11:40:54.862Z,19.21
2019-04-16T11:41:54.827Z,18.69
2019-04-16T11:42:54.819Z,18.58
2019-04-16T11:43:54.785Z,18.99
2019-04-16T11:44:54.791Z,19.25
2019-04-16T11:45:54.773Z,19.36
2019-04-16T11:46:54.799Z,19.19
2019-04-16T11:47:54.745Z,18.45
2019-04-16T11:48:54.782Z,17.93
2019-04-16T11:49:54.725Z,17.96
2019-04-16T11:50:54.747Z,17.84
2019-04-16T11:51:54.735Z,18.07
2019-04-16T11:52:57.286Z,18.26
2019-04-16T11:53:54.711Z,18.41
2019-04-16T11:54:54.704Z,19.08
2019-04-16T11:55:54.702Z,19.48
2019-04-16T11:56:55.475Z,19.33
2019-04-16T11:57:54.685Z,19.51
2019-04-16T11:58:57.432Z,19.16
2019-04-16T12:00:06.070Z,19.36
2019-04-16T12:00:55.677Z,19.73
2019-04-16T12:01:54.624Z,19.83
2019-04-16T12:02:54.594Z,19.96
2019-04-16T12:03:56.315Z,19.98
2019-04-16T12:04:58.849Z,19.74
2019-04-16T12:05:54.567Z,19.69
2019-04-16T12:06:54.577Z,19.81
2019-04-16T12:07:54.577Z,20.28
2019-04-16T12:08:54.536Z,20.26
2019-04-16T12:09:54.525Z,20.21
2019-04-16T12:10:54.520Z,20.23
2019-04-16T12:11:54.511Z,20.03
2019-04-16T12:12:54.492Z,19.43
2019-04-16T12:13:54.486Z,19.36
2019-04-16T12:14:54.472Z,19.29
2019-04-16T12:15:54.493Z,19.31
2019-04-16T12:16:54.481Z,19.63
2019-04-16T12:17:54.440Z,20.01
2019-04-16T12:18:54.433Z,19.69
2019-04-16T12:19:54.503Z,19.84
2019-04-16T12:20:54.453Z,19.73
2019-04-16T12:21:54.402Z,19.58
2019-04-16T12:22:54.392Z,19.65
2019-04-16T12:23:54.381Z,19.62
2019-04-16T12:24:54.387Z,19.54
2019-04-16T12:25:54.367Z,19.80
2019-04-16T12:26:54.373Z,20.32
2019-04-16T12:27:54.379Z,20.38
2019-04-16T12:28:54.335Z,20.61
2019-04-16T12:29:54.325Z,20.76
2019-04-16T12:30:54.349Z,21.01
2019-04-16T12:31:54.299Z,20.97
2019-04-16T12:32:54.421Z,20.17
2019-04-16T12:33:54.317Z,19.68
2019-04-16T12:34:54.285Z,19.62
2019-04-16T12:35:54.288Z,19.54
2019-04-16T12:36:54.244Z,19.61
2019-04-16T12:37:54.247Z,19.33
2019-04-16T12:38:54.272Z,19.16
2019-04-16T12:39:54.232Z,18.75
2019-04-16T12:40:54.257Z,18.69
2019-04-16T12:41:54.217Z,19.04
2019-04-16T12:42:54.271Z,19.13
2019-04-16T12:43:54.173Z,19.47
2019-04-16T12:44:54.210Z,19.81
2019-04-16T12:45:54.155Z,20.32
2019-04-16T12:46:54.149Z,20.06
2019-04-16T12:47:54.166Z,20.23
2019-04-16T12:48:54.173Z,20.64
2019-04-16T12:49:54.118Z,20.79
2019-04-16T12:50:54.153Z,20.66
2019-04-16T12:51:54.092Z,20.70
2019-04-16T12:52:55.109Z,20.35
2019-04-16T12:53:54.264Z,19.98
2019-04-16T12:54:58.282Z,19.59
2019-04-16T12:55:55.073Z,19.76
2019-04-16T12:56:54.060Z,19.29
2019-04-16T12:57:54.046Z,19.39
2019-04-16T12:58:54.017Z,19.22
2019-04-16T12:59:55.023Z,18.99
2019-04-16T13:00:53.998Z,19.07
2019-04-16T13:01:54.019Z,19.07
2019-04-16T13:02:53.977Z,18.91
2019-04-16T13:03:53.969Z,18.78